createdAt,value
2023-02-11T00:00:09.164Z,0.00
2023-02-11T00:01:09.126Z,0.00
2023-02-11T00:02:09.153Z,0.00
2023-02-11T00:03:09.125Z,0.00
2023-02-11T00:04:09.086Z,0.00
2023-02-11T00:05:08.972Z,0.00
2023-02-11T00:06:08.943Z,0.00
2023-02-11T00:07:08.900Z,0.00
2023-02-11T00:08:08.861Z,0.00
2023-02-11T00:09:08.828Z,0.00
2023-02-11T00:10:08.795Z,0.00
2023-02-11T00:11:08.768Z,0.00
2023-02-11T00:12:08.713Z,0.00
2023-02-11T00:13:08.675Z,0.00
2023-02-11T00:14:08.641Z,0.00
2023-02-11T00:15:08.595Z,0.00
2023-02-11T00:16:08.559Z,0.00
2023-02-11T00:17:08.518Z,0.00
2023-02-11T00:18:08.488Z,0.00
2023-02-11T00:19:08.453Z,0.00
2023-02-11T00:20:08.434Z,0.00
2023-02-11T00:21:08.367Z,0.00
2023-02-11T00:22:08.339Z,0.00
2023-02-11T00:23:08.295Z,0.00
2023-02-11T00:24:08.259Z,0.00
2023-02-11T00:25:08.226Z,0.00
2023-02-11T00:26:08.181Z,0.00
2023-02-11T00:27:08.143Z,0.00
2023-02-11T00:28:08.153Z,0.00
2023-02-11T00:29:08.068Z,0.00
2023-02-11T00:30:08.040Z,0.00
2023-02-11T00:31:08.130Z,0.00
2023-02-11T00:32:07.957Z,0.00
2023-02-11T00:33:07.910Z,0.00
2023-02-11T00:34:07.874Z,0.00
2023-02-11T00:35:07.837Z,0.00
2023-02-11T00:36:07.804Z,0.00
2023-02-11T00:37:07.784Z,0.00
2023-02-11T00:38:07.722Z,0.00
2023-02-11T00:39:07.727Z,0.00
2023-02-11T00:40:07.643Z,0.00
2023-02-11T00:41:07.612Z,0.00
2023-02-11T00:42:07.574Z,0.00
2023-02-11T00:43:07.534Z,0.00
2023-02-11T00:44:07.525Z,0.00
2023-02-11T00:45:07.461Z,0.00
2023-02-11T00:46:07.458Z,0.00
2023-02-11T00:47:07.374Z,0.00
2023-02-11T00:48:07.360Z,0.00
2023-02-11T00:49:07.296Z,0.00
2023-02-11T00:50:07.261Z,0.00
2023-02-11T00:51:07.221Z,0.00
2023-02-11T00:52:07.199Z,0.00
2023-02-11T00:53:07.148Z,0.00
2023-02-11T00:54:07.112Z,0.00
2023-02-11T00:55:07.075Z,0.00
2023-02-11T00:56:07.030Z,0.00
2023-02-11T00:57:06.991Z,0.00
2023-02-11T00:58:06.961Z,0.00
2023-02-11T00:59:06.919Z,0.00
2023-02-11T01:00:06.903Z,0.00
2023-02-11T01:01:06.873Z,0.00
2023-02-11T01:02:06.813Z,0.00
2023-02-11T01:03:06.774Z,0.00
2023-02-11T01:04:06.728Z,0.00
2023-02-11T01:05:06.757Z,0.00
2023-02-11T01:06:06.659Z,0.00
2023-02-11T01:07:06.612Z,0.00
2023-02-11T01:08:06.576Z,0.00
2023-02-11T01:09:06.535Z,0.00
2023-02-11T01:10:06.508Z,0.00
2023-02-11T01:11:06.463Z,0.00
2023-02-11T01:12:06.422Z,0.00
2023-02-11T01:13:06.387Z,0.00
2023-02-11T01:14:06.365Z,0.00
2023-02-11T01:15:06.308Z,0.00
2023-02-11T01:16:06.331Z,0.00
2023-02-11T01:17:06.238Z,0.00
2023-02-11T01:18:06.198Z,0.00
2023-02-11T01:19:06.162Z,0.00
2023-02-11T01:20:06.118Z,0.00
2023-02-11T01:21:06.101Z,0.00
2023-02-11T01:22:06.047Z,0.00
2023-02-11T01:23:06.011Z,0.00
2023-02-11T01:24:05.970Z,0.00
2023-02-11T01:25:05.942Z,0.00
2023-02-11T01:26:05.893Z,0.00
2023-02-11T01:27:05.849Z,0.00
2023-02-11T01:28:05.896Z,0.00
2023-02-11T01:29:05.772Z,0.00
2023-02-11T01:30:05.735Z,0.00
2023-02-11T01:31:05.721Z,0.00
2023-02-11T01:32:05.683Z,0.00
2023-02-11T01:33:05.630Z,0.00
2023-02-11T01:34:05.582Z,0.00
2023-02-11T01:35:05.554Z,0.00
2023-02-11T01:36:05.514Z,0.00
2023-02-11T01:37:05.474Z,0.00
2023-02-11T01:38:05.438Z,0.00
2023-02-11T01:39:05.394Z,0.00
2023-02-11T01:40:05.364Z,0.00
2023-02-11T01:41:05.323Z,0.00
2023-02-11T01:42:05.278Z,0.00
2023-02-11T01:43:05.240Z,0.00
2023-02-11T01:44:05.198Z,0.00
2023-02-11T01:45:05.161Z,0.00
2023-02-11T01:46:05.178Z,0.00
2023-02-11T01:47:05.086Z,0.00
2023-02-11T01:48:05.051Z,0.00
2023-02-11T01:49:05.031Z,0.00
2023-02-11T01:50:04.972Z,0.00
2023-02-11T01:51:04.936Z,0.00
2023-02-11T01:52:04.897Z,0.00
2023-02-11T01:53:04.856Z,0.00
2023-02-11T01:54:04.827Z,0.00
2023-02-11T01:55:04.808Z,0.00
2023-02-11T01:56:04.740Z,0.00
2023-02-11T01:57:04.707Z,0.00
2023-02-11T01:58:04.668Z,0.00
2023-02-11T01:59:04.625Z,0.00
2023-02-11T02:00:04.607Z,0.00
2023-02-11T02:01:04.566Z,0.00
2023-02-11T02:02:04.512Z,0.00
2023-02-11T02:04:04.513Z,0.00
2023-02-11T02:05:04.405Z,0.00
2023-02-11T02:06:04.383Z,0.00
2023-02-11T02:07:04.350Z,0.00
2023-02-11T02:08:04.295Z,0.00
2023-02-11T02:09:04.254Z,0.00
2023-02-11T02:10:25.225Z,0.00
2023-02-11T02:11:04.182Z,0.00
2023-02-11T02:12:04.142Z,0.00
2023-02-11T02:13:04.125Z,0.00
2023-02-11T02:14:04.075Z,0.00
2023-02-11T02:15:04.036Z,0.00
2023-02-11T02:16:25.020Z,0.00
2023-02-11T02:17:03.950Z,0.00
2023-02-11T02:18:03.904Z,0.00
2023-02-11T02:19:03.924Z,0.00
2023-02-11T02:20:03.830Z,0.00
2023-02-11T02:21:03.812Z,0.00
2023-02-11T02:22:24.756Z,0.00
2023-02-11T02:23:03.722Z,0.00
2023-02-11T02:24:03.673Z,0.00
2023-02-11T02:25:03.632Z,0.00
2023-02-11T02:26:03.622Z,0.00
2023-02-11T02:27:03.601Z,0.00
2023-02-11T02:28:24.666Z,0.00
2023-02-11T02:29:03.495Z,0.00
2023-02-11T02:30:03.465Z,0.00
2023-02-11T02:31:03.541Z,0.00
2023-02-11T02:32:03.375Z,0.00
2023-02-11T02:33:16.769Z,0.00
2023-02-11T02:34:24.301Z,0.00
2023-02-11T02:35:03.298Z,0.00
2023-02-11T02:36:03.211Z,0.00
2023-02-11T02:37:03.187Z,0.00
2023-02-11T02:38:03.152Z,0.00
2023-02-11T02:39:03.103Z,0.00
2023-02-11T02:40:24.059Z,0.00
2023-02-11T02:41:03.026Z,0.00
2023-02-11T02:42:02.994Z,0.00
2023-02-11T02:43:02.953Z,0.00
2023-02-11T02:44:02.924Z,0.00
2023-02-11T02:45:02.864Z,0.00
2023-02-11T02:46:23.897Z,0.00
2023-02-11T02:47:02.866Z,0.00
2023-02-11T02:48:02.763Z,0.00
2023-02-11T02:49:02.729Z,0.00
2023-02-11T02:50:02.679Z,0.00
2023-02-11T02:51:02.644Z,0.00
2023-02-11T02:52:23.604Z,0.00
2023-02-11T02:53:02.581Z,0.00
2023-02-11T02:54:02.533Z,0.00
2023-02-11T02:55:02.484Z,0.00
2023-02-11T02:56:02.463Z,0.00
2023-02-11T02:57:02.433Z,0.00
2023-02-11T02:58:23.383Z,0.00
2023-02-11T02:59:02.402Z,0.00
2023-02-11T03:00:02.289Z,0.00
2023-02-11T03:01:02.298Z,0.00
2023-02-11T03:02:02.225Z,0.00
2023-02-11T03:03:02.186Z,0.00
2023-02-11T03:04:23.145Z,0.00
2023-02-11T03:05:02.108Z,0.00
2023-02-11T03:06:02.080Z,0.00
2023-02-11T03:07:02.024Z,0.00
2023-02-11T03:08:01.999Z,0.00
2023-02-11T03:09:01.953Z,0.00
2023-02-11T03:10:23.007Z,0.00
2023-02-11T03:11:01.880Z,0.00
2023-02-11T03:12:01.839Z,0.00
2023-02-11T03:13:01.801Z,0.00
2023-02-11T03:14:01.769Z,0.00
2023-02-11T03:15:01.718Z,0.00
2023-02-11T03:16:22.756Z,0.00
2023-02-11T03:17:01.650Z,0.00
2023-02-11T03:18:01.608Z,0.00
2023-02-11T03:19:01.584Z,0.00
2023-02-11T03:20:01.534Z,0.00
2023-02-11T03:21:01.535Z,0.00
2023-02-11T03:22:22.452Z,0.00
2023-02-11T03:23:01.417Z,0.00
2023-02-11T03:24:01.379Z,0.00
2023-02-11T03:25:01.335Z,0.00
2023-02-11T03:26:01.299Z,0.00
2023-02-11T03:27:01.263Z,0.00
2023-02-11T03:28:22.231Z,0.00
2023-02-11T03:29:01.196Z,0.00
2023-02-11T03:30:01.143Z,0.00
2023-02-11T03:31:01.162Z,0.00
2023-02-11T03:32:01.107Z,0.00
2023-02-11T03:33:01.035Z,0.00
2023-02-11T03:34:21.987Z,0.00
2023-02-11T03:35:00.952Z,0.00
2023-02-11T03:36:00.925Z,0.00
2023-02-11T03:37:00.869Z,0.00
2023-02-11T03:38:00.835Z,0.00
2023-02-11T03:39:00.803Z,0.00
2023-02-11T03:40:21.770Z,0.00
2023-02-11T03:41:00.715Z,0.00
2023-02-11T03:42:00.684Z,0.00
2023-02-11T03:43:00.637Z,0.00
2023-02-11T03:44:00.621Z,0.00
2023-02-11T03:45:00.574Z,0.00
2023-02-11T03:46:21.595Z,0.00
2023-02-11T03:47:00.497Z,0.00
2023-02-11T03:48:00.460Z,0.00
2023-02-11T03:49:00.419Z,0.00
2023-02-11T03:50:00.379Z,0.00
2023-02-11T03:51:00.342Z,0.00
2023-02-11T03:52:21.291Z,0.00
2023-02-11T03:53:00.264Z,0.00
2023-02-11T03:54:00.252Z,0.00
2023-02-11T03:55:00.175Z,0.00
2023-02-11T03:56:00.134Z,0.00
2023-02-11T03:57:00.116Z,0.00
2023-02-11T03:58:21.065Z,0.00
2023-02-11T03:59:00.034Z,0.00
2023-02-11T03:59:59.986Z,0.00
2023-02-11T04:00:59.967Z,0.00
2023-02-11T04:01:59.913Z,0.00
2023-02-11T04:02:59.909Z,0.00
2023-02-11T04:04:20.831Z,0.00
2023-02-11T04:04:59.793Z,0.00
2023-02-11T04:05:59.757Z,0.00
2023-02-11T04:06:59.716Z,0.00
2023-02-11T04:07:59.692Z,0.00
2023-02-11T04:08:59.664Z,0.00
2023-02-11T04:10:20.603Z,0.00
2023-02-11T04:10:59.563Z,0.00
2023-02-11T04:11:59.521Z,0.00
2023-02-11T04:12:59.490Z,0.00
2023-02-11T04:13:59.448Z,0.00
2023-02-11T04:14:59.404Z,0.00
2023-02-11T04:16:20.403Z,0.00
2023-02-11T04:16:59.329Z,0.00
2023-02-11T04:17:59.301Z,0.00
2023-02-11T04:18:59.256Z,0.00
2023-02-11T04:19:59.222Z,0.00
2023-02-11T04:20:59.179Z,0.00
2023-02-11T04:22:20.132Z,0.00
2023-02-11T04:22:59.096Z,0.00
2023-02-11T04:23:59.061Z,0.00
2023-02-11T04:24:59.019Z,0.00
2023-02-11T04:25:58.979Z,0.00
2023-02-11T04:26:58.935Z,0.00
2023-02-11T04:28:19.940Z,0.00
2023-02-11T04:28:58.871Z,0.00
2023-02-11T04:29:58.833Z,0.00
2023-02-11T04:30:58.812Z,0.00
2023-02-11T04:31:58.811Z,0.00
2023-02-11T04:32:58.710Z,0.00
2023-02-11T04:34:19.661Z,0.00
2023-02-11T04:34:58.651Z,0.00
2023-02-11T04:35:58.595Z,0.00
2023-02-11T04:36:58.569Z,0.00
2023-02-11T04:37:58.528Z,0.00
2023-02-11T04:38:58.488Z,0.00
2023-02-11T04:40:19.435Z,0.00
2023-02-11T04:40:58.400Z,0.00
2023-02-11T04:41:58.378Z,0.00
2023-02-11T04:42:58.330Z,0.00
2023-02-11T04:43:58.287Z,0.00
2023-02-11T04:44:58.266Z,0.00
2023-02-11T04:46:19.230Z,0.00
2023-02-11T04:46:58.178Z,0.00
2023-02-11T04:47:58.138Z,0.00
2023-02-11T04:48:58.102Z,0.00
2023-02-11T04:49:58.061Z,0.00
2023-02-11T04:50:58.027Z,0.00
2023-02-11T04:52:18.995Z,0.00
2023-02-11T04:52:57.936Z,0.00
2023-02-11T04:53:57.911Z,0.00
2023-02-11T04:54:57.873Z,0.00
2023-02-11T04:55:57.830Z,0.00
2023-02-11T04:56:57.797Z,0.00
2023-02-11T04:58:18.766Z,0.00
2023-02-11T04:58:57.715Z,0.00
2023-02-11T04:59:57.670Z,0.00
2023-02-11T05:00:57.662Z,0.00
2023-02-11T05:01:57.595Z,0.00
2023-02-11T05:02:57.549Z,0.00
2023-02-11T05:04:18.536Z,0.00
2023-02-11T05:04:57.474Z,0.00
2023-02-11T05:05:57.441Z,0.00
2023-02-11T05:06:58.720Z,0.00
2023-02-11T05:07:57.383Z,0.00
2023-02-11T05:08:57.328Z,0.00
2023-02-11T05:10:18.297Z,0.00
2023-02-11T05:10:57.241Z,0.00
2023-02-11T05:11:57.206Z,0.00
2023-02-11T05:12:57.174Z,0.00
2023-02-11T05:13:57.132Z,0.00
2023-02-11T05:14:57.088Z,0.00
2023-02-11T05:16:18.084Z,0.00
2023-02-11T05:16:57.053Z,0.00
2023-02-11T05:17:56.985Z,0.00
2023-02-11T05:18:56.944Z,0.00
2023-02-11T05:19:56.903Z,0.00
2023-02-11T05:20:56.862Z,0.00
2023-02-11T05:22:17.824Z,0.00
2023-02-11T05:22:56.787Z,0.00
2023-02-11T05:23:56.746Z,0.00
2023-02-11T05:24:56.707Z,0.00
2023-02-11T05:25:56.664Z,0.00
2023-02-11T05:26:56.635Z,0.00
2023-02-11T05:28:17.618Z,0.00
2023-02-11T05:28:56.550Z,0.00
2023-02-11T05:29:56.513Z,0.00
2023-02-11T05:30:56.519Z,0.00
2023-02-11T05:31:56.458Z,0.00
2023-02-11T05:32:56.400Z,0.00
2023-02-11T05:34:17.385Z,0.00
2023-02-11T05:34:56.319Z,0.00
2023-02-11T05:35:56.286Z,0.00
2023-02-11T05:36:56.283Z,0.00
2023-02-11T05:37:56.208Z,0.00
2023-02-11T05:38:56.166Z,0.00
2023-02-11T05:40:17.129Z,0.00
2023-02-11T05:40:56.092Z,0.00
2023-02-11T05:41:56.058Z,0.00
2023-02-11T05:42:56.045Z,0.00
2023-02-11T05:43:55.990Z,0.00
2023-02-11T05:44:55.946Z,0.00
2023-02-11T05:46:16.973Z,0.00
2023-02-11T05:46:55.856Z,0.00
2023-02-11T05:47:55.830Z,0.00
2023-02-11T05:48:55.785Z,0.00
2023-02-11T05:49:55.745Z,0.00
2023-02-11T05:50:55.716Z,0.00
2023-02-11T05:52:16.672Z,0.00
2023-02-11T05:52:55.632Z,0.00
2023-02-11T05:53:55.596Z,0.00
2023-02-11T05:54:55.559Z,0.00
2023-02-11T05:55:55.543Z,0.00
2023-02-11T05:56:55.477Z,0.00
2023-02-11T05:58:16.509Z,0.00
2023-02-11T05:58:55.392Z,0.00
2023-02-11T05:59:55.360Z,0.00
2023-02-11T06:00:55.334Z,0.00
2023-02-11T06:01:55.292Z,0.00
2023-02-11T06:02:55.330Z,0.00
2023-02-11T06:04:16.214Z,0.00
2023-02-11T06:04:55.188Z,0.00
2023-02-11T06:05:55.156Z,0.00
2023-02-11T06:06:55.109Z,0.00
2023-02-11T06:07:55.054Z,0.00
2023-02-11T06:08:55.008Z,0.00
2023-02-11T06:10:15.973Z,0.00
2023-02-11T06:10:54.944Z,0.00
2023-02-11T06:11:54.904Z,0.00
2023-02-11T06:12:54.872Z,0.00
2023-02-11T06:13:54.830Z,0.00
2023-02-11T06:14:54.782Z,0.00
2023-02-11T06:16:15.834Z,0.00
2023-02-11T06:16:54.717Z,0.00
2023-02-11T06:17:54.704Z,0.00
2023-02-11T06:18:54.633Z,0.00
2023-02-11T06:19:54.606Z,0.00
2023-02-11T06:20:54.560Z,0.00
2023-02-11T06:22:15.510Z,0.00
2023-02-11T06:22:54.486Z,0.00
2023-02-11T06:23:54.441Z,0.00
2023-02-11T06:25:01.334Z,0.00
2023-02-11T06:25:54.390Z,0.00
2023-02-11T06:26:54.320Z,0.00
2023-02-11T06:28:15.358Z,0.00
2023-02-11T06:28:54.249Z,0.00
2023-02-11T06:29:54.266Z,0.00
2023-02-11T06:30:54.270Z,0.00
2023-02-11T06:31:54.297Z,0.00
2023-02-11T06:32:54.240Z,0.00
2023-02-11T06:34:15.064Z,0.00
2023-02-11T06:34:54.022Z,0.00
2023-02-11T06:35:53.981Z,0.00
2023-02-11T06:36:53.951Z,0.00
2023-02-11T06:37:53.928Z,0.00
2023-02-11T06:38:53.873Z,0.00
2023-02-11T06:40:14.828Z,0.00
2023-02-11T06:40:53.791Z,4.00
2023-02-11T06:41:53.758Z,4.00
2023-02-11T06:42:53.712Z,4.00
2023-02-11T06:43:53.705Z,0.00
2023-02-11T06:44:53.644Z,4.00
2023-02-11T06:46:14.608Z,4.00
2023-02-11T06:46:53.596Z,4.00
2023-02-11T06:47:53.533Z,4.00
2023-02-11T06:48:53.505Z,4.00
2023-02-11T06:49:53.443Z,8.00
2023-02-11T06:50:53.404Z,4.00
2023-02-11T06:52:14.363Z,8.00
2023-02-11T06:52:53.347Z,12.00
2023-02-11T06:53:53.302Z,8.00
2023-02-11T06:54:53.268Z,12.00
2023-02-11T06:55:53.305Z,12.00
2023-02-11T06:56:53.184Z,12.00
2023-02-11T06:58:14.152Z,12.00
2023-02-11T06:58:53.108Z,16.00
2023-02-11T06:59:53.064Z,20.00
2023-02-11T07:00:53.026Z,16.00
2023-02-11T07:01:53.093Z,24.00
2023-02-11T07:02:53.031Z,24.00
2023-02-11T07:04:13.909Z,24.00
2023-02-11T07:04:52.881Z,28.00
2023-02-11T07:05:53.043Z,24.00
2023-02-11T07:06:52.798Z,28.00
2023-02-11T07:07:52.773Z,32.00
2023-02-11T07:08:52.726Z,32.00
2023-02-11T07:10:13.680Z,32.00
2023-02-11T07:10:52.642Z,28.00
2023-02-11T07:11:52.621Z,28.00
2023-02-11T07:12:52.575Z,32.00
2023-02-11T07:13:52.534Z,32.00
2023-02-11T07:14:52.530Z,32.00
2023-02-11T07:16:13.513Z,36.00
2023-02-11T07:16:52.416Z,36.00
2023-02-11T07:17:52.436Z,36.00
2023-02-11T07:18:52.334Z,36.00
2023-02-11T07:19:52.303Z,40.00
2023-02-11T07:20:52.261Z,40.00
2023-02-11T07:22:13.231Z,40.00
2023-02-11T07:22:52.203Z,40.00
2023-02-11T07:23:52.184Z,40.00
2023-02-11T07:24:52.113Z,44.00
2023-02-11T07:25:52.274Z,44.00
2023-02-11T07:26:52.034Z,44.00
2023-02-11T07:28:13.038Z,44.00
2023-02-11T07:28:51.952Z,48.00
2023-02-11T07:29:51.918Z,48.00
2023-02-11T07:30:51.908Z,52.00
2023-02-11T07:31:51.876Z,48.00
2023-02-11T07:32:51.818Z,52.00
2023-02-11T07:34:12.769Z,52.00
2023-02-11T07:34:51.831Z,52.00
2023-02-11T07:35:52.087Z,52.00
2023-02-11T07:36:51.657Z,52.00
2023-02-11T07:37:51.606Z,52.00
2023-02-11T07:38:51.580Z,60.00
2023-02-11T07:40:12.550Z,56.00
2023-02-11T07:40:51.502Z,56.00
2023-02-11T07:41:51.455Z,56.00
2023-02-11T07:42:51.429Z,60.00
2023-02-11T07:43:51.401Z,64.00
2023-02-11T07:44:51.345Z,64.00
2023-02-11T07:46:12.307Z,68.00
2023-02-11T07:46:51.292Z,72.00
2023-02-11T07:47:51.229Z,72.00
2023-02-11T07:48:51.196Z,76.00
2023-02-11T07:49:51.153Z,76.00
2023-02-11T07:50:51.111Z,84.00
2023-02-11T07:52:12.068Z,84.00
2023-02-11T07:52:51.046Z,84.00
2023-02-11T07:53:50.995Z,84.00
2023-02-11T07:54:50.958Z,88.00
2023-02-11T07:55:51.165Z,92.00
2023-02-11T07:56:50.887Z,100.00
2023-02-11T07:58:11.836Z,100.00
2023-02-11T07:58:50.825Z,100.00
2023-02-11T07:59:50.778Z,100.00
2023-02-11T08:00:50.773Z,100.00
2023-02-11T08:01:50.756Z,104.00
2023-02-11T08:02:50.666Z,100.00
2023-02-11T08:04:11.635Z,104.00
2023-02-11T08:04:50.580Z,108.00
2023-02-11T08:05:50.860Z,116.00
2023-02-11T08:06:50.498Z,124.00
2023-02-11T08:07:50.455Z,152.00
2023-02-11T08:08:50.422Z,152.00
2023-02-11T08:10:11.385Z,172.00
2023-02-11T08:10:50.590Z,176.00
2023-02-11T08:11:50.316Z,180.00
2023-02-11T08:12:50.331Z,180.00
2023-02-11T08:13:50.225Z,172.00
2023-02-11T08:14:50.194Z,180.00
2023-02-11T08:16:11.196Z,188.00
2023-02-11T08:16:50.158Z,188.00
2023-02-11T08:17:50.092Z,200.00
2023-02-11T08:18:50.039Z,200.00
2023-02-11T08:19:50.008Z,212.00
2023-02-11T08:20:50.286Z,232.00
2023-02-11T08:22:10.928Z,244.00
2023-02-11T08:22:49.925Z,280.00
2023-02-11T08:23:49.897Z,296.00
2023-02-11T08:24:52.293Z,320.00
2023-02-11T08:25:49.784Z,312.00
2023-02-11T08:26:49.741Z,312.00
2023-02-11T08:28:10.739Z,304.00
2023-02-11T08:28:49.660Z,280.00
2023-02-11T08:29:49.624Z,268.00
2023-02-11T08:30:49.979Z,252.00
2023-02-11T08:31:49.557Z,264.00
2023-02-11T08:32:49.499Z,288.00
2023-02-11T08:34:10.459Z,276.00
2023-02-11T08:34:49.435Z,280.00
2023-02-11T08:35:49.401Z,280.00
2023-02-11T08:36:49.350Z,284.00
2023-02-11T08:37:49.313Z,280.00
2023-02-11T08:38:49.266Z,280.00
2023-02-11T08:40:10.233Z,280.00
2023-02-11T08:40:49.556Z,276.00
2023-02-11T08:41:49.162Z,300.00
2023-02-11T08:42:49.123Z,308.00
2023-02-11T08:43:49.087Z,304.00
2023-02-11T08:44:49.043Z,328.00
2023-02-11T08:46:10.098Z,344.00
2023-02-11T08:46:48.989Z,364.00
2023-02-11T08:47:48.920Z,368.00
2023-02-11T08:48:48.907Z,372.00
2023-02-11T08:49:48.861Z,364.00
2023-02-11T08:50:48.810Z,364.00
2023-02-11T08:52:09.778Z,376.00
2023-02-11T08:52:48.731Z,380.00
2023-02-11T08:53:48.691Z,380.00
2023-02-11T08:54:48.698Z,392.00
2023-02-11T08:55:48.814Z,396.00
2023-02-11T08:56:48.584Z,356.00
2023-02-11T08:58:09.553Z,384.00
2023-02-11T08:58:48.592Z,388.00
2023-02-11T08:59:48.474Z,400.00
2023-02-11T09:00:48.882Z,412.00
2023-02-11T09:01:48.519Z,416.00
2023-02-11T09:02:48.356Z,460.00
2023-02-11T09:04:09.317Z,452.00
2023-02-11T09:04:48.292Z,444.00
2023-02-11T09:05:48.257Z,448.00
2023-02-11T09:06:48.262Z,428.00
2023-02-11T09:07:48.166Z,428.00
2023-02-11T09:08:48.133Z,416.00
2023-02-11T09:10:09.090Z,404.00
2023-02-11T09:10:48.100Z,388.00
2023-02-11T09:11:48.015Z,372.00
2023-02-11T09:12:47.970Z,356.00
2023-02-11T09:13:47.956Z,364.00
2023-02-11T09:14:47.911Z,368.00
2023-02-11T09:16:08.856Z,356.00
2023-02-11T09:16:47.872Z,360.00
2023-02-11T09:17:47.795Z,352.00
2023-02-11T09:18:47.911Z,356.00
2023-02-11T09:19:47.712Z,356.00
2023-02-11T09:20:47.668Z,340.00
2023-02-11T09:22:08.633Z,352.00
2023-02-11T09:22:47.603Z,372.00
2023-02-11T09:23:47.600Z,388.00
2023-02-11T09:24:47.532Z,380.00
2023-02-11T09:25:47.599Z,372.00
2023-02-11T09:26:47.461Z,384.00
2023-02-11T09:28:08.449Z,412.00
2023-02-11T09:28:47.462Z,420.00
2023-02-11T09:29:47.340Z,436.00
2023-02-11T09:30:47.366Z,452.00
2023-02-11T09:31:47.381Z,440.00
2023-02-11T09:32:47.216Z,444.00
2023-02-11T09:34:08.176Z,448.00
2023-02-11T09:34:47.133Z,440.00
2023-02-11T09:35:47.104Z,424.00
2023-02-11T09:36:47.065Z,452.00
2023-02-11T09:37:47.021Z,464.00
2023-02-11T09:38:47.020Z,472.00
2023-02-11T09:40:07.947Z,464.00
2023-02-11T09:40:46.910Z,460.00
2023-02-11T09:41:46.873Z,448.00
2023-02-11T09:42:46.857Z,424.00
2023-02-11T09:43:46.799Z,420.00
2023-02-11T09:44:46.765Z,420.00
2023-02-11T09:46:07.786Z,408.00
2023-02-11T09:46:46.692Z,392.00
2023-02-11T09:47:46.645Z,412.00
2023-02-11T09:48:46.657Z,412.00
2023-02-11T09:49:46.584Z,408.00
2023-02-11T09:50:46.532Z,436.00
2023-02-11T09:52:07.500Z,452.00
2023-02-11T09:52:46.466Z,448.00
2023-02-11T09:53:46.417Z,468.00
2023-02-11T09:54:46.383Z,472.00
2023-02-11T09:55:46.350Z,456.00
2023-02-11T09:56:46.317Z,416.00
2023-02-11T09:58:07.275Z,400.00
2023-02-11T09:58:46.262Z,404.00
2023-02-11T09:59:46.208Z,424.00
2023-02-11T10:00:46.172Z,428.00
2023-02-11T10:01:46.186Z,432.00
2023-02-11T10:02:46.129Z,432.00
2023-02-11T10:04:07.080Z,412.00
2023-02-11T10:04:46.017Z,416.00
2023-02-11T10:05:45.983Z,428.00
2023-02-11T10:06:45.929Z,456.00
2023-02-11T10:07:45.892Z,460.00
2023-02-11T10:08:45.862Z,480.00
2023-02-11T10:10:06.832Z,476.00
2023-02-11T10:10:45.827Z,472.00
2023-02-11T10:11:45.753Z,460.00
2023-02-11T10:12:45.720Z,452.00
2023-02-11T10:13:45.668Z,440.00
2023-02-11T10:14:45.639Z,448.00
2023-02-11T10:16:06.639Z,452.00
2023-02-11T10:16:45.572Z,436.00
2023-02-11T10:17:45.523Z,424.00
2023-02-11T10:18:45.484Z,432.00
2023-02-11T10:19:45.442Z,428.00
2023-02-11T10:20:45.404Z,436.00
2023-02-11T10:22:06.368Z,436.00
2023-02-11T10:22:45.344Z,428.00
2023-02-11T10:23:45.302Z,432.00
2023-02-11T10:24:45.266Z,452.00
2023-02-11T10:25:45.582Z,480.00
2023-02-11T10:26:45.186Z,476.00
2023-02-11T10:28:06.172Z,448.00
2023-02-11T10:28:45.217Z,444.00
2023-02-11T10:29:45.078Z,464.00
2023-02-11T10:30:45.195Z,480.00
2023-02-11T10:31:45.051Z,504.00
2023-02-11T10:32:44.960Z,488.00
2023-02-11T10:34:05.911Z,492.00
2023-02-11T10:34:44.885Z,520.00
2023-02-11T10:35:44.841Z,524.00
2023-02-11T10:36:44.800Z,504.00
2023-02-11T10:37:44.761Z,476.00
2023-02-11T10:38:44.744Z,444.00
2023-02-11T10:40:05.690Z,436.00
2023-02-11T10:40:44.685Z,432.00
2023-02-11T10:41:44.616Z,420.00
2023-02-11T10:42:44.580Z,408.00
2023-02-11T10:43:44.547Z,400.00
2023-02-11T10:44:44.520Z,404.00
2023-02-11T10:46:05.500Z,412.00
2023-02-11T10:46:44.464Z,424.00
2023-02-11T10:47:44.478Z,420.00
2023-02-11T10:48:44.356Z,420.00
2023-02-11T10:49:44.333Z,456.00
2023-02-11T10:50:44.274Z,476.00
2023-02-11T10:52:05.240Z,436.00
2023-02-11T10:52:44.203Z,416.00
2023-02-11T10:53:44.171Z,476.00
2023-02-11T10:54:44.126Z,432.00
2023-02-11T10:55:44.092Z,428.00
2023-02-11T10:56:44.051Z,424.00
2023-02-11T10:58:05.023Z,468.00
2023-02-11T10:58:43.978Z,484.00
2023-02-11T10:59:43.949Z,448.00
2023-02-11T11:00:43.906Z,456.00
2023-02-11T11:01:43.963Z,460.00
2023-02-11T11:02:43.827Z,456.00
2023-02-11T11:04:04.833Z,468.00
2023-02-11T11:04:43.834Z,484.00
2023-02-11T11:05:43.749Z,464.00
2023-02-11T11:06:43.686Z,440.00
2023-02-11T11:07:43.635Z,460.00
2023-02-11T11:08:43.609Z,476.00
2023-02-11T11:10:04.569Z,480.00
2023-02-11T11:10:43.604Z,476.00
2023-02-11T11:11:43.508Z,528.00
2023-02-11T11:12:43.460Z,516.00
2023-02-11T11:13:43.434Z,464.00
2023-02-11T11:14:43.381Z,440.00
2023-02-11T11:16:04.375Z,476.00
2023-02-11T11:16:43.305Z,484.00
2023-02-11T11:17:43.263Z,484.00
2023-02-11T11:18:43.239Z,520.00
2023-02-11T11:19:43.191Z,524.00
2023-02-11T11:20:43.160Z,564.00
2023-02-11T11:22:04.112Z,540.00
2023-02-11T11:22:43.095Z,552.00
2023-02-11T11:23:43.041Z,556.00
2023-02-11T11:24:43.010Z,568.00
2023-02-11T11:25:42.975Z,608.00
2023-02-11T11:26:42.941Z,588.00
2023-02-11T11:28:03.979Z,636.00
2023-02-11T11:28:42.864Z,628.00
2023-02-11T11:29:42.818Z,604.00
2023-02-11T11:30:42.815Z,592.00
2023-02-11T11:31:42.797Z,540.00
2023-02-11T11:32:42.707Z,604.00
2023-02-11T11:34:03.677Z,640.00
2023-02-11T11:34:42.634Z,632.00
2023-02-11T11:35:42.603Z,588.00
2023-02-11T11:36:42.555Z,568.00
2023-02-11T11:37:42.513Z,612.00
2023-02-11T11:38:42.480Z,632.00
2023-02-11T11:40:03.437Z,628.00
2023-02-11T11:40:42.402Z,648.00
2023-02-11T11:41:42.362Z,660.00
2023-02-11T11:42:42.337Z,680.00
2023-02-11T11:43:42.319Z,644.00
2023-02-11T11:44:42.259Z,596.00
2023-02-11T11:46:03.216Z,552.00
2023-02-11T11:46:42.274Z,528.00
2023-02-11T11:47:42.148Z,472.00
2023-02-11T11:48:42.100Z,492.00
2023-02-11T11:49:42.064Z,508.00
2023-02-11T11:50:42.026Z,532.00
2023-02-11T11:52:02.980Z,504.00
2023-02-11T11:52:41.960Z,464.00
2023-02-11T11:53:41.916Z,464.00
2023-02-11T11:54:41.877Z,436.00
2023-02-11T11:55:41.838Z,440.00
2023-02-11T11:56:41.808Z,436.00
2023-02-11T11:58:02.784Z,408.00
2023-02-11T11:58:41.733Z,400.00
2023-02-11T11:59:41.694Z,424.00
2023-02-11T12:00:41.652Z,444.00
2023-02-11T12:01:41.655Z,436.00
2023-02-11T12:02:41.654Z,448.00
2023-02-11T12:04:02.538Z,444.00
2023-02-11T12:04:41.505Z,476.00
2023-02-11T12:05:41.458Z,464.00
2023-02-11T12:06:41.430Z,448.00
2023-02-11T12:07:41.397Z,460.00
2023-02-11T12:08:41.368Z,488.00
2023-02-11T12:10:02.323Z,492.00
2023-02-11T12:10:41.272Z,484.00
2023-02-11T12:11:41.254Z,468.00
2023-02-11T12:12:41.226Z,488.00
2023-02-11T12:13:41.181Z,484.00
2023-02-11T12:14:41.129Z,484.00
2023-02-11T12:16:02.113Z,444.00
2023-02-11T12:16:41.097Z,492.00
2023-02-11T12:17:41.013Z,504.00
2023-02-11T12:18:40.982Z,524.00
2023-02-11T12:19:40.947Z,528.00
2023-02-11T12:20:40.906Z,528.00
2023-02-11T12:22:01.866Z,496.00
2023-02-11T12:22:40.830Z,496.00
2023-02-11T12:23:40.782Z,500.00
2023-02-11T12:24:40.755Z,496.00
2023-02-11T12:25:40.720Z,492.00
2023-02-11T12:26:40.684Z,460.00
2023-02-11T12:28:01.685Z,440.00
2023-02-11T12:28:40.873Z,428.00
2023-02-11T12:29:40.593Z,404.00
2023-02-11T12:30:40.574Z,432.00
2023-02-11T12:31:40.567Z,460.00
2023-02-11T12:32:40.461Z,436.00
2023-02-11T12:34:01.405Z,428.00
2023-02-11T12:34:40.384Z,396.00
2023-02-11T12:35:40.348Z,372.00
2023-02-11T12:36:40.305Z,396.00
2023-02-11T12:37:40.277Z,384.00
2023-02-11T12:38:40.231Z,388.00
2023-02-11T12:40:01.180Z,380.00
2023-02-11T12:40:40.161Z,384.00
2023-02-11T12:41:40.114Z,396.00
2023-02-11T12:42:40.090Z,396.00
2023-02-11T12:43:40.037Z,408.00
2023-02-11T12:44:40.017Z,432.00
2023-02-11T12:46:01.023Z,424.00
2023-02-11T12:46:39.931Z,408.00
2023-02-11T12:47:39.889Z,424.00
2023-02-11T12:48:39.885Z,412.00
2023-02-11T12:49:39.822Z,392.00
2023-02-11T12:50:39.787Z,380.00
2023-02-11T12:52:00.737Z,392.00
2023-02-11T12:52:39.709Z,392.00
2023-02-11T12:53:39.675Z,356.00
2023-02-11T12:54:39.629Z,352.00
2023-02-11T12:55:39.592Z,348.00
2023-02-11T12:56:39.552Z,348.00